Time;durP1;ratioP1;P1;durP2;ratioP2;P2;SDS_P1;SDS_P2;PMS_P1;PMS_P2;Temp;Humidity;BMP_temperature;BMP_pressure;BME280_temperature;BME280_humidity;BME280_pressure;Samples;Min_cycle;Max_cycle;Signal;HPM_P1;HPM_P2
2021/12/16 00:09:14;;;;;;;28.70;16.13;;;2.20;93.90;;;;;;5013392;28;20042;-75
2021/12/16 00:20:24;;;;;;;26.20;13.93;;;2.20;94.20;;;;;;5023290;28;20080;-75
2021/12/16 00:35:39;;;;;;;19.85;11.90;;;2.10;95.00;;;;;;5009390;28;20036;-76
2021/12/16 00:38:05;;;;;;;21.00;12.35;;;2.10;95.00;;;;;;5013337;28;20430;-76
2021/12/16 00:40:31;;;;;;;19.17;11.10;;;2.10;94.90;;;;;;5021068;28;20029;-76
2021/12/16 00:43:10;;;;;;;20.88;12.02;;;2.10;94.30;;;;;;5015580;28;20085;-76
2021/12/16 00:55:58;;;;;;;21.60;10.88;;;2.10;95.80;;;;;;5022593;28;20033;-75
2021/12/16 00:58:39;;;;;;;18.40;10.82;;;2.00;96.20;;;;;;5019708;28;20042;-77
2021/12/16 01:06:28;;;;;;;16.35;9.73;;;2.00;95.90;;;;;;5021122;28;20026;-76
2021/12/16 01:36:26;;;;;;;23.92;12.25;;;2.00;95.80;;;;;;5021380;28;20113;-75
2021/12/16 01:47:40;;;;;;;17.27;9.55;;;2.00;96.10;;;;;;5021178;28;20492;-75
2021/12/16 01:52:11;;;;;;;15.25;8.40;;;2.00;95.60;;;;;;5017177;28;20175;-74
2021/12/16 01:57:34;;;;;;;16.38;9.10;;;1.90;96.60;;;;;;5018083;28;20040;-77
2021/12/16 02:00:06;;;;;;;19.90;10.00;;;1.90;96.00;;;;;;5017755;28;20037;-76
2021/12/16 02:05:30;;;;;;;23.13;11.75;;;1.70;96.30;;;;;;5017778;28;20026;-76
2021/12/16 02:10:35;;;;;;;15.30;8.75;;;1.70;95.90;;;;;;5018030;28;20458;-76
2021/12/16 02:27:25;;;;;;;20.70;10.85;;;1.90;96.00;;;;;;5018054;28;20109;-76
2021/12/16 02:27:29;;;;;;;21.10;11.15;;;1.70;95.80;;;;;;5018037;28;20045;-76
2021/12/16 02:35:31;;;;;;;26.38;11.98;;;1.70;95.30;;;;;;5010685;28;20076;-76
2021/12/16 02:37:59;;;;;;;24.02;12.45;;;1.70;95.00;;;;;;5014211;28;20118;-76
2021/12/16 02:40:26;;;;;;;22.23;13.10;;;1.70;94.80;;;;;;5017187;28;20085;-76
2021/12/16 02:43:19;;;;;;;19.73;11.07;;;1.80;95.10;;;;;;5017536;28;20030;-77
2021/12/16 02:51:11;;;;;;;19.90;10.18;;;1.90;94.90;;;;;;5016284;28;20026;-76
2021/12/16 02:53:43;;;;;;;22.30;11.00;;;1.90;95.00;;;;;;5013930;28;20346;-74
2021/12/16 02:56:09;;;;;;;24.52;11.48;;;1.80;95.10;;;;;;5016200;28;20323;-75
2021/12/16 02:58:37;;;;;;;27.67;12.88;;;1.80;95.00;;;;;;5016976;28;20025;-75
2021/12/16 03:01:30;;;;;;;23.20;10.95;;;1.80;94.80;;;;;;5013964;28;20118;-74
2021/12/16 03:03:58;;;;;;;21.98;11.43;;;1.80;94.60;;;;;;5009686;28;20045;-74
2021/12/16 03:06:26;;;;;;;19.42;10.10;;;1.90;94.30;;;;;;5011098;28;20334;-74
2021/12/16 03:08:52;;;;;;;19.02;10.05;;;1.90;94.00;;;;;;5009882;28;20029;-74
2021/12/16 03:21:34;;;;;;;16.15;9.05;;;2.00;94.40;;;;;;5013325;28;20105;-77
2021/12/16 03:24:20;;;;;;;14.88;8.52;;;2.00;95.30;;;;;;5014598;28;20022;-77
2021/12/16 03:29:33;;;;;;;21.42;10.60;;;2.00;95.20;;;;;;5015998;28;20112;-76
2021/12/16 03:34:59;;;;;;;25.65;12.10;;;1.90;94.90;;;;;;5013499;28;20037;-76
2021/12/16 03:37:25;;;;;;;17.88;9.90;;;1.90;95.00;;;;;;5011108;28;20060;-75
2021/12/16 03:39:53;;;;;;;16.48;9.20;;;1.90;94.90;;;;;;5014070;28;20441;-75
2021/12/16 03:42:45;;;;;;;21.55;11.10;;;1.90;94.60;;;;;;5014616;28;20029;-76
2021/12/16 03:48:10;;;;;;;17.00;8.95;;;1.90;94.60;;;;;;5013609;28;20033;-76
2021/12/16 03:50:36;;;;;;;16.52;8.70;;;2.00;94.20;;;;;;5015333;28;20549;-76
2021/12/16 03:53:04;;;;;;;14.52;7.15;;;1.90;94.70;;;;;;5013637;28;20415;-76
2021/12/16 03:55:30;;;;;;;17.55;8.60;;;2.00;94.50;;;;;;5014749;28;20426;-75
2021/12/16 03:57:56;;;;;;;16.25;8.00;;;1.90;94.40;;;;;;5016044;28;20030;-75
2021/12/16 04:00:33;;;;;;;16.58;8.40;;;2.00;94.90;;;;;;5013722;28;20033;-75
2021/12/16 04:02:59;;;;;;;15.10;7.55;;;2.00;94.60;;;;;;5014759;28;20105;-75
2021/12/16 04:05:26;;;;;;;14.45;7.68;;;2.00;94.60;;;;;;5011378;28;20440;-76
2021/12/16 04:07:52;;;;;;;15.02;8.07;;;2.00;95.00;;;;;;5014422;28;20064;-76
2021/12/16 04:10:22;;;;;;;13.60;6.97;;;2.00;94.90;;;;;;5014416;28;20111;-76
2021/12/16 04:12:50;;;;;;;14.55;7.55;;;2.00;95.00;;;;;;5014714;28;20026;-75
2021/12/16 04:15:16;;;;;;;16.98;8.48;;;2.00;95.00;;;;;;5014577;28;20311;-76
2021/12/16 04:17:43;;;;;;;18.38;9.52;;;2.00;95.00;;;;;;5016190;28;20093;-75
2021/12/16 04:20:11;;;;;;;16.00;8.55;;;2.00;95.00;;;;;;5015437;28;20327;-76
2021/12/16 04:22:42;;;;;;;35.40;17.38;;;2.00;95.00;;;;;;5010611;28;20293;-75
2021/12/16 04:25:16;;;;;;;120.15;53.00;;;1.90;95.10;;;;;;5015493;28;20411;-75
2021/12/16 04:27:43;;;;;;;88.80;39.00;;;2.00;95.10;;;;;;5016080;28;20034;-75
2021/12/16 04:30:10;;;;;;;96.47;41.53;;;1.90;95.10;;;;;;5015061;28;20331;-78
2021/12/16 04:32:37;;;;;;;102.45;45.88;;;1.90;94.60;;;;;;5015437;28;20034;-76
2021/12/16 04:35:03;;;;;;;149.98;57.47;;;2.00;94.80;;;;;;5012966;28;20022;-76
2021/12/16 04:37:29;;;;;;;28.60;14.80;;;2.00;94.40;;;;;;5021422;28;20036;-75
2021/12/16 04:39:55;;;;;;;24.30;12.35;;;2.00;94.30;;;;;;5013206;28;20026;-76
2021/12/16 04:42:25;;;;;;;13.93;7.75;;;2.00;94.70;;;;;;5013812;28;20030;-76
2021/12/16 04:44:50;;;;;;;29.05;17.33;;;2.00;95.30;;;;;;5015147;28;20080;-75
2021/12/16 04:47:16;;;;;;;35.45;22.40;;;1.90;95.00;;;;;;5014558;28;20033;-76
2021/12/16 04:49:42;;;;;;;24.40;16.20;;;1.90;94.70;;;;;;5015101;28;20032;-76
2021/12/16 04:52:15;;;;;;;13.95;7.28;;;1.90;94.40;;;;;;5014149;28;20033;-76
2021/12/16 04:54:42;;;;;;;14.02;7.88;;;1.90;94.30;;;;;;5015268;28;20033;-75
2021/12/16 04:57:08;;;;;;;17.80;8.82;;;2.00;94.50;;;;;;5015516;28;20034;-76
2021/12/16 04:59:35;;;;;;;19.60;9.85;;;2.00;94.30;;;;;;5014614;28;20299;-75
2021/12/16 05:02:13;;;;;;;15.45;7.43;;;2.00;93.60;;;;;;5011891;28;20040;-76
2021/12/16 05:04:39;;;;;;;17.58;8.05;;;2.00;93.80;;;;;;5012488;28;20038;-76
2021/12/16 05:07:06;;;;;;;12.50;6.25;;;2.00;94.00;;;;;;5014259;28;20335;-76
2021/12/16 05:12:17;;;;;;;11.00;5.70;;;2.00;93.40;;;;;;5013958;28;20026;-75
2021/12/16 05:14:44;;;;;;;12.40;5.88;;;2.00;93.60;;;;;;5014623;28;20044;-75
2021/12/16 05:17:23;;;;;;;10.88;5.90;;;2.00;93.60;;;;;;5009390;28;20132;-75
2021/12/16 05:19:52;;;;;;;11.63;5.43;;;2.00;93.60;;;;;;5014563;28;20096;-76
2021/12/16 05:25:14;;;;;;;9.63;4.78;;;2.00;93.80;;;;;;5014198;28;20315;-76
2021/12/16 05:27:39;;;;;;;;;;;2.00;94.30;;;;;;5018657;28;20103;-76
2021/12/16 05:30:07;;;;;;;17.58;8.85;;;2.00;94.20;;;;;;5009630;28;19984;-78
2021/12/16 05:32:33;;;;;;;27.48;13.40;;;2.00;94.40;;;;;;5015383;28;20335;-76
2021/12/16 05:34:58;;;;;;;39.85;17.02;;;2.00;93.80;;;;;;5017284;28;20018;-75
2021/12/16 05:37:24;;;;;;;27.40;14.23;;;2.00;93.80;;;;;;5016567;28;20032;-76
2021/12/16 05:39:49;;;;;;;33.90;16.48;;;2.00;93.50;;;;;;5018607;28;20100;-76
2021/12/16 05:42:15;;;;;;;38.28;16.40;;;2.00;93.30;;;;;;5016942;28;20038;-76
2021/12/16 05:44:45;;;;;;;32.67;14.00;;;2.00;93.40;;;;;;5017985;28;20076;-75
2021/12/16 05:47:10;;;;;;;28.13;13.70;;;1.90;93.60;;;;;;5016507;28;20044;-75
2021/12/16 05:49:36;;;;;;;36.55;16.02;;;1.90;93.40;;;;;;5017587;28;20474;-76
2021/12/16 05:52:02;;;;;;;30.83;13.70;;;1.90;93.30;;;;;;5017104;28;20117;-75
2021/12/16 05:54:28;;;;;;;30.00;13.02;;;1.90;93.10;;;;;;5018119;28;20018;-75
2021/12/16 05:56:54;;;;;;;25.10;11.63;;;1.80;93.00;;;;;;5015922;28;20022;-74
2021/12/16 05:59:20;;;;;;;23.75;11.23;;;1.90;92.50;;;;;;5016930;28;20081;-74
2021/12/16 06:01:48;;;;;;;28.48;13.98;;;1.90;92.50;;;;;;5010271;28;20069;-74
2021/12/16 06:04:14;;;;;;;21.00;10.98;;;1.90;92.60;;;;;;5014952;28;20021;-74
2021/12/16 06:06:40;;;;;;;34.20;15.20;;;1.90;92.50;;;;;;5017258;28;20114;-76
2021/12/16 06:09:08;;;;;;;39.67;17.42;;;1.90;92.50;;;;;;5017245;28;20471;-77
2021/12/16 06:11:36;;;;;;;31.58;15.63;;;1.90;92.80;;;;;;5009396;28;20038;-77
2021/12/16 06:14:15;;;;;;;25.88;13.35;;;1.90;92.40;;;;;;5016991;28;20105;-75
2021/12/16 06:27:34;;;;;;;39.20;20.15;;;2.00;91.80;;;;;;5016436;28;20037;-75
2021/12/16 06:30:09;;;;;;;40.35;19.67;;;2.00;91.50;;;;;;5003431;28;20042;-76
2021/12/16 06:32:35;;;;;;;32.45;17.77;;;2.10;91.40;;;;;;4999101;28;20114;-75
2021/12/16 06:35:01;;;;;;;24.33;14.80;;;2.10;91.20;;;;;;5016993;28;20339;-75
2021/12/16 06:37:27;;;;;;;20.10;10.25;;;2.20;91.80;;;;;;5015818;28;20036;-76
2021/12/16 06:39:52;;;;;;;14.10;8.02;;;2.10;92.50;;;;;;5016979;28;20113;-75
2021/12/16 06:42:18;;;;;;;15.13;7.57;;;2.10;92.70;;;;;;5017054;28;20055;-76
2021/12/16 06:44:54;;;;;;;21.02;12.00;;;2.10;93.00;;;;;;5016412;28;20033;-75
2021/12/16 06:47:26;;;;;;;18.88;10.25;;;2.10;92.80;;;;;;5018197;28;20018;-76
2021/12/16 06:49:54;;;;;;;19.80;11.52;;;2.10;93.00;;;;;;5017175;28;20030;-75
2021/12/16 06:52:25;;;;;;;21.08;11.93;;;2.20;92.90;;;;;;5016737;28;20318;-75
2021/12/16 06:55:07;;;;;;;20.23;11.77;;;2.20;92.90;;;;;;5016252;28;20065;-76
2021/12/16 06:57:42;;;;;;;16.13;8.70;;;2.20;93.00;;;;;;5016072;28;20022;-75
2021/12/16 07:00:20;;;;;;;17.58;10.25;;;2.20;93.20;;;;;;5012093;28;20377;-76
2021/12/16 07:02:59;;;;;;;16.55;9.43;;;2.20;93.50;;;;;;5017625;28;20108;-76
2021/12/16 07:05:38;;;;;;;17.63;10.15;;;2.20;93.60;;;;;;5016404;28;20092;-76
2021/12/16 07:08:07;;;;;;;15.23;9.40;;;2.20;93.40;;;;;;5012488;28;20029;-76
2021/12/16 07:10:33;;;;;;;16.65;11.15;;;2.20;93.50;;;;;;5015755;28;20057;-75
2021/12/16 07:13:06;;;;;;;19.58;14.13;;;2.30;93.50;;;;;;5016418;28;20438;-76
2021/12/16 07:15:34;;;;;;;14.00;8.10;;;2.30;93.70;;;;;;5017327;28;20018;-76
2021/12/16 07:17:59;;;;;;;11.23;7.10;;;2.30;93.70;;;;;;5017126;28;20021;-76
2021/12/16 07:20:28;;;;;;;12.15;7.63;;;2.40;93.60;;;;;;5017312;28;20097;-76
2021/12/16 07:22:56;;;;;;;12.68;8.38;;;2.40;94.00;;;;;;5015086;28;20030;-75
2021/12/16 07:25:22;;;;;;;10.82;7.07;;;2.50;94.00;;;;;;5017474;28;20030;-76
2021/12/16 07:27:48;;;;;;;7.10;4.65;;;2.60;94.10;;;;;;5014707;28;20039;-75
2021/12/16 07:30:18;;;;;;;9.50;5.90;;;2.60;94.80;;;;;;5013611;28;20026;-76
2021/12/16 07:32:44;;;;;;;8.43;4.75;;;2.70;94.80;;;;;;5016499;28;20326;-75
2021/12/16 07:35:17;;;;;;;6.68;3.53;;;2.70;95.70;;;;;;5016144;28;20375;-76
2021/12/16 07:37:43;;;;;;;9.00;5.40;;;2.80;96.20;;;;;;5015505;28;20029;-75
2021/12/16 07:40:16;;;;;;;12.45;6.70;;;2.90;96.50;;;;;;5016692;28;20031;-76
2021/12/16 07:43:00;;;;;;;9.48;5.43;;;2.90;97.80;;;;;;5015619;28;20060;-76
2021/12/16 07:45:27;;;;;;;16.13;7.40;;;2.80;97.70;;;;;;5017026;28;20080;-75
2021/12/16 07:47:54;;;;;;;15.93;9.88;;;2.80;97.80;;;;;;5017148;28;20061;-77
2021/12/16 07:50:20;;;;;;;14.25;8.93;;;2.80;97.70;;;;;;5016578;28;20048;-78
2021/12/16 07:52:45;;;;;;;13.48;8.02;;;2.70;97.80;;;;;;5015379;28;20109;-76
2021/12/16 07:55:13;;;;;;;13.38;7.72;;;2.80;97.70;;;;;;5016897;28;20109;-76
2021/12/16 07:57:39;;;;;;;14.18;7.18;;;2.80;98.00;;;;;;5016130;28;20014;-77
2021/12/16 08:00:10;;;;;;;16.42;8.27;;;2.80;98.00;;;;;;5015314;28;20037;-76
2021/12/16 08:02:37;;;;;;;31.40;16.30;;;2.80;98.00;;;;;;5016650;28;20388;-75
2021/12/16 08:05:04;;;;;;;39.10;18.80;;;2.80;98.00;;;;;;5015268;28;20026;-76
2021/12/16 08:07:29;;;;;;;33.35;17.13;;;2.70;97.80;;;;;;5015304;28;20025;-76
2021/12/16 08:09:55;;;;;;;32.10;16.88;;;2.60;97.20;;;;;;5014652;28;20059;-75
2021/12/16 08:12:21;;;;;;;50.08;22.90;;;2.60;97.40;;;;;;5015991;28;20433;-76
2021/12/16 08:14:47;;;;;;;52.47;22.38;;;2.60;97.20;;;;;;5016446;28;20018;-76
2021/12/16 08:17:14;;;;;;;43.00;19.67;;;2.60;97.10;;;;;;5015869;28;20045;-75
2021/12/16 08:19:39;;;;;;;48.92;24.00;;;2.60;96.70;;;;;;5016066;28;20033;-76
2021/12/16 08:22:06;;;;;;;79.40;31.73;;;2.60;96.60;;;;;;5015302;28;20030;-75
2021/12/16 08:24:32;;;;;;;58.55;26.58;;;2.70;96.80;;;;;;5016016;28;20030;-76
2021/12/16 08:26:57;;;;;;;43.65;22.60;;;2.60;96.50;;;;;;5016342;28;20021;-76
2021/12/16 08:29:24;;;;;;;53.53;25.55;;;2.60;96.10;;;;;;5014663;28;20441;-76
2021/12/16 08:31:52;;;;;;;57.20;27.65;;;2.70;96.50;;;;;;5015163;28;20096;-76
2021/12/16 08:34:18;;;;;;;33.17;18.30;;;2.80;96.20;;;;;;5016386;28;20407;-76
2021/12/16 08:36:44;;;;;;;36.85;19.27;;;2.80;95.90;;;;;;5016326;28;20093;-75
2021/12/16 08:39:11;;;;;;;36.08;19.50;;;2.90;96.70;;;;;;5014228;28;20021;-76
2021/12/16 08:41:44;;;;;;;36.83;20.23;;;2.80;97.00;;;;;;5015591;28;20060;-75
2021/12/16 08:44:10;;;;;;;36.37;20.43;;;2.80;97.10;;;;;;5013163;28;21542;-75
2021/12/16 08:46:39;;;;;;;38.50;19.73;;;2.80;97.00;;;;;;5013785;28;20087;-77
2021/12/16 08:49:05;;;;;;;21.77;12.23;;;2.80;97.40;;;;;;5014585;28;20307;-75
2021/12/16 08:51:36;;;;;;;19.85;11.10;;;2.90;97.30;;;;;;5013595;28;20044;-75
2021/12/16 08:54:02;;;;;;;28.05;15.55;;;2.90;97.60;;;;;;5011503;28;20030;-76
2021/12/16 08:56:28;;;;;;;26.45;16.15;;;2.90;98.00;;;;;;5013677;28;20109;-76
2021/12/16 08:58:55;;;;;;;24.85;15.40;;;2.90;98.00;;;;;;5014114;28;20022;-76
2021/12/16 09:01:24;;;;;;;26.02;14.30;;;2.90;98.00;;;;;;5018157;28;20041;-77
2021/12/16 09:03:51;;;;;;;26.88;14.38;;;2.90;98.00;;;;;;5018480;28;20033;-76
2021/12/16 09:06:17;;;;;;;23.92;13.30;;;2.90;98.00;;;;;;5018403;28;20026;-75
2021/12/16 09:08:43;;;;;;;31.27;16.67;;;2.90;98.00;;;;;;5016740;28;20441;-75
2021/12/16 09:11:13;;;;;;;24.55;14.50;;;2.90;98.00;;;;;;5018343;28;20034;-75
2021/12/16 09:13:41;;;;;;;28.33;15.75;;;2.90;98.00;;;;;;5019179;28;20478;-76
2021/12/16 09:16:10;;;;;;;28.83;16.45;;;3.00;98.00;;;;;;5019598;28;20026;-76
2021/12/16 09:18:41;;;;;;;27.15;15.48;;;3.00;98.00;;;;;;5016902;28;20026;-76
2021/12/16 09:21:15;;;;;;;27.63;14.63;;;3.00;98.00;;;;;;5018270;28;20128;-76
2021/12/16 09:23:44;;;;;;;19.98;12.05;;;3.10;98.00;;;;;;5017494;28;20327;-75
2021/12/16 09:26:10;;;;;;;22.30;12.30;;;3.10;98.00;;;;;;5018515;28;20080;-76
2021/12/16 09:28:36;;;;;;;19.38;11.45;;;3.20;98.00;;;;;;5018906;28;20423;-76
2021/12/16 09:31:04;;;;;;;20.02;11.57;;;3.20;98.00;;;;;;5018308;28;20322;-76
2021/12/16 09:33:33;;;;;;;18.98;11.65;;;3.20;98.00;;;;;;5015500;28;20403;-76
2021/12/16 09:36:00;;;;;;;21.00;13.05;;;3.30;98.00;;;;;;5007227;28;20336;-76
2021/12/16 09:38:27;;;;;;;22.58;13.95;;;3.40;98.00;;;;;;5016538;28;20029;-75
2021/12/16 09:40:56;;;;;;;24.60;14.35;;;3.50;98.00;;;;;;5019010;28;20022;-75
2021/12/16 09:43:26;;;;;;;23.33;14.48;;;3.50;98.00;;;;;;5018838;28;20033;-78
2021/12/16 09:45:55;;;;;;;21.73;12.75;;;3.40;98.00;;;;;;5019183;28;20101;-75
2021/12/16 09:48:21;;;;;;;20.13;11.23;;;3.40;98.00;;;;;;5019165;28;20055;-76
2021/12/16 09:50:47;;;;;;;19.38;11.63;;;3.60;98.00;;;;;;5017571;28;20034;-76
2021/12/16 09:53:13;;;;;;;21.50;13.10;;;3.60;98.00;;;;;;5017131;28;20096;-76
2021/12/16 09:55:40;;;;;;;17.48;10.77;;;3.50;98.00;;;;;;5007348;28;20065;-75
2021/12/16 09:58:06;;;;;;;18.08;10.85;;;3.50;98.00;;;;;;5018667;28;20018;-76
2021/12/16 10:00:35;;;;;;;18.42;11.23;;;3.50;98.00;;;;;;5016780;28;20025;-75
2021/12/16 10:03:03;;;;;;;20.98;12.20;;;3.50;98.00;;;;;;5017057;28;20033;-76
2021/12/16 10:05:31;;;;;;;25.48;14.13;;;3.50;98.00;;;;;;5016669;28;20091;-75
2021/12/16 10:07:58;;;;;;;21.17;12.73;;;3.50;98.00;;;;;;5016032;28;20037;-75
2021/12/16 10:10:26;;;;;;;23.00;12.90;;;3.50;98.00;;;;;;5015990;28;20101;-76
2021/12/16 10:12:59;;;;;;;23.27;13.07;;;3.40;98.00;;;;;;5013926;28;20442;-76
2021/12/16 10:18:03;;;;;;;20.55;11.48;;;3.50;98.00;;;;;;5016793;28;20026;-75
2021/12/16 10:20:34;;;;;;;21.58;11.43;;;3.60;98.00;;;;;;5032354;28;20041;-76
2021/12/16 10:23:10;;;;;;;20.50;12.02;;;3.70;98.00;;;;;;5014269;28;20021;-76
2021/12/16 10:25:42;;;;;;;18.13;10.90;;;3.60;98.00;;;;;;5013493;28;20026;-77
2021/12/16 10:28:23;;;;;;;17.25;11.00;;;3.70;98.00;;;;;;5008082;28;20057;-75
2021/12/16 10:31:00;;;;;;;22.88;13.98;;;3.70;98.00;;;;;;5005134;28;20035;-74
2021/12/16 10:33:34;;;;;;;23.63;15.95;;;3.80;98.00;;;;;;5017733;28;20041;-75
2021/12/16 10:36:12;;;;;;;19.40;12.02;;;3.90;98.00;;;;;;5014958;28;20089;-74
2021/12/16 10:38:43;;;;;;;20.75;12.48;;;4.00;98.00;;;;;;5017003;28;20083;-76
2021/12/16 10:41:13;;;;;;;22.35;14.23;;;4.20;98.00;;;;;;5017362;28;20347;-76
2021/12/16 10:43:44;;;;;;;20.13;12.57;;;4.20;98.00;;;;;;5018144;28;20041;-76
2021/12/16 10:46:15;;;;;;;16.40;10.68;;;4.40;98.00;;;;;;5017287;28;20028;-76
2021/12/16 10:48:48;;;;;;;16.50;10.60;;;4.40;98.00;;;;;;5017727;28;20021;-77
2021/12/16 10:51:16;;;;;;;15.10;9.40;;;4.50;98.00;;;;;;5032795;28;20021;-76
2021/12/16 10:54:21;;;;;;;14.60;9.10;;;4.50;98.00;;;;;;5016575;28;20059;-76
2021/12/16 10:57:08;;;;;;;15.88;9.82;;;4.70;98.00;;;;;;5016752;28;20022;-76
2021/12/16 10:59:45;;;;;;;20.05;13.15;;;4.70;98.00;;;;;;4997112;28;20034;-76
2021/12/16 11:02:24;;;;;;;14.98;8.70;;;4.70;98.00;;;;;;5007311;28;20026;-76
2021/12/16 11:05:00;;;;;;;13.80;8.35;;;4.70;98.00;;;;;;5016207;28;20046;-76
2021/12/16 11:07:37;;;;;;;14.00;8.02;;;4.80;98.00;;;;;;5014445;28;20373;-77
2021/12/16 11:10:18;;;;;;;26.77;16.00;;;5.00;98.00;;;;;;5016828;28;20034;-76
2021/12/16 11:12:54;;;;;;;19.80;11.30;;;5.10;98.00;;;;;;5016190;28;20032;-76
2021/12/16 11:15:27;;;;;;;21.90;12.30;;;4.90;98.00;;;;;;5016762;28;20028;-75
2021/12/16 11:18:04;;;;;;;25.50;16.85;;;4.80;98.00;;;;;;5016647;28;20022;-76
2021/12/16 11:20:53;;;;;;;22.13;14.40;;;4.70;98.00;;;;;;5017019;28;20022;-76
2021/12/16 11:23:34;;;;;;;25.17;15.75;;;4.60;98.00;;;;;;5014389;28;20029;-75
2021/12/16 11:26:10;;;;;;;23.77;14.82;;;4.50;98.00;;;;;;5016992;28;20307;-75
2021/12/16 11:28:45;;;;;;;21.17;14.57;;;4.40;98.00;;;;;;5015850;28;20435;-76
2021/12/16 11:31:26;;;;;;;21.63;14.27;;;4.30;98.00;;;;;;5016596;28;20063;-76
2021/12/16 11:34:01;;;;;;;22.27;14.20;;;4.30;98.00;;;;;;5015216;28;20053;-76
2021/12/16 11:36:30;;;;;;;20.17;12.60;;;4.40;98.00;;;;;;5016929;28;20322;-75
2021/12/16 11:39:02;;;;;;;20.42;13.52;;;4.40;98.00;;;;;;5014288;28;20273;-75
2021/12/16 11:41:48;;;;;;;20.33;12.93;;;4.40;98.00;;;;;;5015675;28;20482;-76
2021/12/16 11:44:22;;;;;;;25.73;14.88;;;4.40;98.00;;;;;;5016633;28;20033;-75
2021/12/16 11:47:03;;;;;;;19.23;12.15;;;4.30;98.00;;;;;;5015809;28;20030;-75
2021/12/16 11:50:04;;;;;;;15.90;10.10;;;4.30;98.00;;;;;;5016639;28;20049;-75
2021/12/16 11:52:33;;;;;;;26.52;13.05;;;4.30;98.00;;;;;;5013749;28;20037;-75
2021/12/16 11:55:06;;;;;;;22.50;11.60;;;4.50;98.00;;;;;;5015980;28;20022;-76
2021/12/16 11:57:44;;;;;;;22.17;12.57;;;4.60;98.00;;;;;;5015176;28;20410;-76
2021/12/16 12:00:25;;;;;;;27.20;15.05;;;4.70;98.00;;;;;;5015457;28;20033;-76
2021/12/16 12:02:55;;;;;;;28.38;14.90;;;4.70;98.00;;;;;;5015416;28;20374;-76
2021/12/16 12:05:26;;;;;;;21.10;12.57;;;4.70;98.00;;;;;;5015274;28;20029;-75
2021/12/16 12:08:03;;;;;;;27.65;14.07;;;4.60;98.00;;;;;;5014625;28;20164;-76
2021/12/16 12:11:10;;;;;;;27.98;14.98;;;4.70;98.00;;;;;;5016637;28;20079;-76
2021/12/16 12:13:43;;;;;;;24.00;14.05;;;4.70;98.00;;;;;;5014555;28;20171;-77
2021/12/16 12:16:26;;;;;;;20.88;13.38;;;4.70;98.00;;;;;;5016430;28;20053;-76
2021/12/16 12:18:58;;;;;;;20.45;13.80;;;4.70;98.00;;;;;;5014920;28;20029;-75
2021/12/16 12:21:39;;;;;;;19.25;12.77;;;4.80;98.00;;;;;;5016122;28;20042;-76
2021/12/16 12:24:08;;;;;;;19.23;11.98;;;4.90;98.00;;;;;;5010658;28;20029;-76
2021/12/16 12:26:45;;;;;;;19.58;11.95;;;4.90;98.00;;;;;;5016032;28;20423;-75
2021/12/16 12:29:18;;;;;;;21.88;12.35;;;4.90;98.00;;;;;;5016000;28;20054;-75
2021/12/16 12:31:52;;;;;;;22.13;13.68;;;4.90;98.00;;;;;;5016072;28;20088;-75
2021/12/16 12:34:20;;;;;;;21.20;13.10;;;4.90;98.00;;;;;;5015902;28;20022;-76
2021/12/16 12:36:49;;;;;;;29.02;17.67;;;4.90;98.00;;;;;;5007399;28;20028;-74
2021/12/16 12:39:18;;;;;;;27.00;15.02;;;4.80;98.00;;;;;;5016060;28;20112;-76
2021/12/16 12:41:45;;;;;;;23.45;14.15;;;4.80;98.00;;;;;;5015307;28;20026;-75
2021/12/16 12:44:11;;;;;;;21.83;13.13;;;4.80;98.00;;;;;;5016105;28;20029;-76
2021/12/16 12:46:39;;;;;;;22.77;13.45;;;4.80;98.00;;;;;;5016000;28;20029;-76
2021/12/16 12:49:12;;;;;;;22.88;14.48;;;4.80;98.00;;;;;;5016078;28;20022;-75
2021/12/16 12:51:46;;;;;;;21.27;14.15;;;4.70;98.00;;;;;;5015519;28;20026;-76
2021/12/16 12:54:22;;;;;;;27.13;17.08;;;4.80;98.00;;;;;;5015509;28;20105;-76
2021/12/16 12:56:49;;;;;;;24.92;15.60;;;4.80;98.00;;;;;;5014512;28;20061;-76
2021/12/16 12:59:16;;;;;;;21.58;12.45;;;4.80;98.00;;;;;;5015997;28;20026;-76
2021/12/16 13:01:55;;;;;;;22.92;12.73;;;4.90;98.00;;;;;;5014653;28;20030;-76
2021/12/16 13:04:30;;;;;;;19.65;12.45;;;5.00;98.00;;;;;;5015861;28;20037;-76
2021/12/16 13:07:08;;;;;;;20.02;12.30;;;4.90;98.00;;;;;;5014559;28;20119;-75
2021/12/16 13:09:55;;;;;;;19.70;12.57;;;4.90;98.00;;;;;;5015989;28;20030;-75
2021/12/16 13:12:38;;;;;;;18.85;12.25;;;4.90;98.00;;;;;;4996311;28;20371;-76
2021/12/16 13:15:19;;;;;;;17.95;11.48;;;4.90;98.00;;;;;;5014404;28;20026;-75
2021/12/16 13:28:55;;;;;;;19.83;12.13;;;4.90;98.00;;;;;;5015334;28;20112;-74
2021/12/16 13:31:33;;;;;;;18.10;12.45;;;4.80;98.00;;;;;;5015221;28;20026;-74
2021/12/16 13:34:01;;;;;;;19.70;12.27;;;4.60;98.00;;;;;;5014800;28;20291;-75
2021/12/16 13:36:49;;;;;;;20.83;13.23;;;4.40;98.00;;;;;;5015501;28;20125;-76
2021/12/16 13:39:23;;;;;;;20.23;12.70;;;4.40;98.00;;;;;;5015424;28;20030;-76
2021/12/16 13:42:14;;;;;;;20.23;13.45;;;4.50;98.00;;;;;;5015557;28;20030;-75
2021/12/16 13:44:51;;;;;;;18.80;12.73;;;4.50;98.00;;;;;;5014664;28;20419;-75
2021/12/16 13:47:32;;;;;;;26.40;16.33;;;4.40;98.00;;;;;;5017283;28;20113;-77
2021/12/16 14:05:04;;;;;;;25.42;16.70;;;4.50;98.00;;;;;;5018628;28;20037;-75
2021/12/16 14:08:05;;;;;;;24.92;15.30;;;4.50;98.00;;;;;;5016598;28;20422;-75
2021/12/16 14:10:45;;;;;;;27.88;16.98;;;4.50;98.00;;;;;;5015456;28;20164;-75
2021/12/16 14:16:37;;;;;;;25.17;16.67;;;4.40;98.00;;;;;;5018079;28;20088;-76
2021/12/16 14:24:52;;;;;;;18.88;12.57;;;4.40;98.00;;;;;;5018183;28;20488;-75
2021/12/16 14:46:46;;;;;;;26.08;16.42;;;4.30;98.00;;;;;;5013739;28;20379;-76
2021/12/16 14:49:11;;;;;;;32.30;21.70;;;4.20;98.00;;;;;;5015316;28;20415;-75
2021/12/16 14:51:37;;;;;;;26.45;16.70;;;4.20;98.00;;;;;;5017994;28;20284;-75
2021/12/16 14:54:03;;;;;;;25.60;17.23;;;4.30;98.00;;;;;;5016718;28;20018;-75
2021/12/16 14:56:37;;;;;;;25.80;16.15;;;4.20;98.00;;;;;;5016715;28;20026;-76
2021/12/16 14:59:09;;;;;;;25.70;16.75;;;4.20;98.00;;;;;;5017160;28;20100;-75
2021/12/16 15:01:39;;;;;;;23.75;14.60;;;4.20;98.00;;;;;;5016300;28;20044;-75
2021/12/16 15:04:08;;;;;;;21.70;14.23;;;4.20;98.00;;;;;;5017826;28;20029;-75
2021/12/16 15:06:43;;;;;;;19.17;12.88;;;4.20;98.00;;;;;;5016906;28;20041;-75
2021/12/16 15:11:54;;;;;;;19.95;12.95;;;4.20;98.00;;;;;;5016243;28;20323;-75
2021/12/16 15:17:15;;;;;;;26.60;15.90;;;4.10;98.00;;;;;;5017341;28;20345;-75
2021/12/16 15:45:00;;;;;;;25.73;15.82;;;3.80;98.00;;;;;;4996839;28;20045;-76
2021/12/16 15:47:26;;;;;;;24.38;15.35;;;3.80;98.00;;;;;;5006576;28;20029;-75
2021/12/16 15:49:52;;;;;;;23.88;15.93;;;3.80;98.00;;;;;;5014280;28;20327;-75
2021/12/16 15:52:18;;;;;;;23.75;16.00;;;3.80;98.00;;;;;;4995092;28;20033;-76
2021/12/16 15:54:49;;;;;;;22.58;15.25;;;3.80;98.00;;;;;;5015579;28;20080;-75
2021/12/16 15:57:16;;;;;;;23.00;15.43;;;3.80;98.00;;;;;;5016747;28;20322;-77
2021/12/16 15:59:48;;;;;;;20.50;13.45;;;3.80;98.00;;;;;;5016871;28;20026;-76
2021/12/16 16:02:16;;;;;;;21.73;14.52;;;3.80;98.00;;;;;;5015587;28;20026;-75
2021/12/16 16:04:42;;;;;;;23.75;15.35;;;3.70;98.00;;;;;;5015787;28;20029;-75
2021/12/16 16:07:11;;;;;;;25.85;17.63;;;3.80;98.00;;;;;;5015204;28;20045;-75
2021/12/16 16:09:38;;;;;;;32.60;21.02;;;3.80;98.00;;;;;;5016361;28;20489;-77
2021/12/16 16:12:05;;;;;;;30.00;19.60;;;3.70;98.00;;;;;;5015218;28;20069;-76
2021/12/16 16:14:32;;;;;;;24.00;17.45;;;3.70;98.00;;;;;;5014974;28;20378;-75
2021/12/16 16:17:11;;;;;;;26.30;18.38;;;3.70;98.00;;;;;;5016552;28;20025;-76
2021/12/16 16:19:40;;;;;;;25.63;17.80;;;3.60;98.00;;;;;;5016560;28;20341;-74
2021/12/16 16:22:07;;;;;;;26.52;18.48;;;3.50;98.00;;;;;;5013927;28;20411;-74
2021/12/16 16:24:53;;;;;;;22.70;16.30;;;3.50;98.00;;;;;;5015382;28;20433;-74
2021/12/16 16:27:31;;;;;;;24.27;16.15;;;3.50;98.00;;;;;;5016022;28;20046;-74
2021/12/16 16:29:59;;;;;;;25.27;16.33;;;3.60;98.00;;;;;;5015866;28;20081;-77
2021/12/16 16:32:49;;;;;;;26.27;15.50;;;3.50;98.00;;;;;;5015985;28;20113;-76
2021/12/16 16:35:15;;;;;;;30.70;19.10;;;3.50;98.00;;;;;;4995092;28;20033;-75
2021/12/16 16:37:41;;;;;;;24.33;15.57;;;3.40;98.00;;;;;;5015022;28;20097;-75
2021/12/16 16:40:10;;;;;;;47.47;32.42;;;3.40;98.00;;;;;;5016297;28;20026;-76
2021/12/16 16:42:39;;;;;;;29.50;19.77;;;3.30;98.00;;;;;;5016123;28;20486;-75
2021/12/16 16:45:08;;;;;;;31.02;20.52;;;3.20;98.00;;;;;;5015749;28;20026;-77
2021/12/16 16:47:40;;;;;;;28.23;19.20;;;3.10;98.00;;;;;;5015739;28;20029;-76
2021/12/16 16:50:09;;;;;;;31.23;20.85;;;3.10;97.40;;;;;;5016212;28;20060;-77
2021/12/16 16:52:39;;;;;;;33.22;21.58;;;3.20;97.80;;;;;;5013438;28;20088;-76
2021/12/16 16:55:26;;;;;;;29.73;20.73;;;3.20;98.00;;;;;;5015160;28;20076;-75
2021/12/16 16:58:05;;;;;;;25.48;17.48;;;3.10;97.90;;;;;;5014959;28;20018;-75